createdAt,value
2017-08-29T00:01:49.271Z,10.57
2017-08-29T00:04:16.037Z,10.57
2017-08-29T00:06:42.758Z,10.30
2017-08-29T00:09:09.473Z,11.20
2017-08-29T00:11:36.202Z,11.77
2017-08-29T00:14:02.922Z,11.47
2017-08-29T00:16:29.643Z,10.67
2017-08-29T00:18:56.402Z,12.70
2017-08-29T00:21:23.110Z,10.73
2017-08-29T00:23:49.828Z,10.90
2017-08-29T00:26:16.585Z,10.87
2017-08-29T00:28:43.312Z,10.73
2017-08-29T00:31:10.035Z,10.57
2017-08-29T00:33:36.800Z,12.40
2017-08-29T00:36:03.528Z,11.80
2017-08-29T00:38:30.265Z,12.67
2017-08-29T00:40:57.020Z,11.17
2017-08-29T00:43:23.738Z,11.50
2017-08-29T00:45:50.451Z,11.17
2017-08-29T00:48:17.195Z,10.30
2017-08-29T00:50:43.902Z,11.87
2017-08-29T00:53:10.623Z,9.60
2017-08-29T00:55:37.368Z,10.57
2017-08-29T00:58:04.113Z,10.07
2017-08-29T01:00:30.864Z,10.70
2017-08-29T01:02:57.656Z,10.60
2017-08-29T01:05:24.403Z,10.97
2017-08-29T01:07:51.134Z,10.53
2017-08-29T01:10:17.900Z,9.57
2017-08-29T01:12:44.639Z,9.37
2017-08-29T01:15:11.352Z,7.87
2017-08-29T01:17:38.118Z,7.60
2017-08-29T01:20:04.855Z,7.50
2017-08-29T01:22:31.604Z,8.57
2017-08-29T01:24:58.361Z,8.97
2017-08-29T01:27:25.096Z,8.33
2017-08-29T01:29:51.819Z,8.60
2017-08-29T01:32:18.594Z,8.97
2017-08-29T01:34:45.333Z,8.43
2017-08-29T01:37:12.067Z,9.80
2017-08-29T01:39:38.909Z,9.23
2017-08-29T01:42:05.653Z,10.00
2017-08-29T01:44:32.374Z,9.40
2017-08-29T01:46:59.139Z,9.73
2017-08-29T01:49:25.879Z,10.20
2017-08-29T01:51:52.616Z,9.03
2017-08-29T01:54:19.431Z,8.77
2017-08-29T01:56:46.153Z,9.30
2017-08-29T01:59:12.896Z,9.07
2017-08-29T02:01:39.647Z,9.60
2017-08-29T02:04:06.387Z,10.57
2017-08-29T02:06:33.140Z,9.67
2017-08-29T02:08:59.925Z,10.47
2017-08-29T02:11:26.660Z,8.87
2017-08-29T02:13:53.379Z,10.47
2017-08-29T02:16:20.179Z,10.10
2017-08-29T02:18:46.943Z,10.57
2017-08-29T02:21:13.636Z,9.30
2017-08-29T02:23:40.384Z,8.77
2017-08-29T02:26:07.093Z,8.80
2017-08-29T02:28:33.802Z,9.17
2017-08-29T02:31:00.539Z,9.00
2017-08-29T02:33:27.243Z,9.77
2017-08-29T02:35:53.962Z,9.77
2017-08-29T02:38:20.695Z,9.53
2017-08-29T02:40:47.403Z,9.53
2017-08-29T02:43:14.106Z,9.60
2017-08-29T02:45:40.845Z,9.10
2017-08-29T02:48:07.546Z,9.00
2017-08-29T02:50:34.279Z,9.10
2017-08-29T02:53:01.003Z,8.83
2017-08-29T02:55:27.735Z,9.40
2017-08-29T02:57:54.431Z,8.80
2017-08-29T03:00:21.168Z,9.83
2017-08-29T03:02:47.926Z,9.20
2017-08-29T03:05:14.638Z,9.83
2017-08-29T03:07:41.351Z,8.77
2017-08-29T03:10:08.064Z,9.13
2017-08-29T03:12:35.161Z,10.27
2017-08-29T03:15:01.915Z,8.90
2017-08-29T03:17:28.627Z,8.83
2017-08-29T03:19:55.382Z,9.80
2017-08-29T03:22:22.102Z,9.73
2017-08-29T03:24:48.856Z,10.37
2017-08-29T03:27:15.572Z,9.73
2017-08-29T03:29:42.309Z,10.60
2017-08-29T03:32:09.086Z,10.47
2017-08-29T03:34:35.803Z,10.80
2017-08-29T03:37:02.539Z,10.00
2017-08-29T03:39:29.256Z,9.60
2017-08-29T03:41:55.962Z,10.23
2017-08-29T03:44:22.708Z,9.83
2017-08-29T03:46:49.411Z,10.70
2017-08-29T03:49:16.120Z,10.17
2017-08-29T03:51:42.883Z,10.87
2017-08-29T03:54:09.596Z,10.90
2017-08-29T03:56:36.304Z,10.90
2017-08-29T03:59:03.060Z,11.13
2017-08-29T04:01:29.767Z,11.13
2017-08-29T04:03:56.462Z,10.20
2017-08-29T04:06:23.188Z,10.57
2017-08-29T04:08:49.903Z,11.10
2017-08-29T04:11:16.626Z,10.63
2017-08-29T04:13:43.383Z,11.27
2017-08-29T04:16:10.114Z,10.53
2017-08-29T04:18:36.817Z,9.80
2017-08-29T04:21:03.534Z,9.80
2017-08-29T04:23:30.236Z,9.93
2017-08-29T04:25:56.952Z,10.63
2017-08-29T04:28:23.697Z,10.27
2017-08-29T04:30:50.424Z,11.00
2017-08-29T04:33:17.140Z,9.53
2017-08-29T04:35:43.886Z,9.20
2017-08-29T04:38:10.620Z,8.50
2017-08-29T04:40:37.358Z,9.40
2017-08-29T04:43:04.111Z,9.37
2017-08-29T04:45:30.827Z,9.30
2017-08-29T04:47:57.540Z,10.40
2017-08-29T04:50:24.264Z,9.20
2017-08-29T04:52:50.977Z,9.30
2017-08-29T04:55:17.720Z,9.80
2017-08-29T04:57:44.439Z,9.90
2017-08-29T05:00:11.199Z,9.60
2017-08-29T05:02:37.966Z,9.43
2017-08-29T05:05:04.778Z,10.10
2017-08-29T05:07:31.489Z,10.60
2017-08-29T05:09:58.212Z,11.10
2017-08-29T05:12:24.968Z,10.03
2017-08-29T05:14:51.676Z,9.30
2017-08-29T05:17:18.400Z,10.30
2017-08-29T05:19:45.131Z,8.90
2017-08-29T05:22:11.848Z,10.17
2017-08-29T05:24:38.549Z,9.70
2017-08-29T05:27:05.316Z,9.93
2017-08-29T05:29:32.027Z,9.90
2017-08-29T05:31:58.734Z,9.50
2017-08-29T05:34:25.460Z,11.00
2017-08-29T05:36:52.167Z,10.07
2017-08-29T05:39:18.889Z,11.17
2017-08-29T05:41:45.627Z,10.80
2017-08-29T05:44:12.462Z,12.27
2017-08-29T05:46:39.186Z,11.80
2017-08-29T05:49:05.914Z,11.43
2017-08-29T05:51:32.667Z,13.27
2017-08-29T05:53:59.371Z,12.87
2017-08-29T05:56:26.103Z,14.50
2017-08-29T05:58:52.807Z,14.70
2017-08-29T06:01:19.543Z,13.60
2017-08-29T06:03:46.305Z,13.20
2017-08-29T06:06:13.027Z,14.43
2017-08-29T06:08:39.779Z,13.73
2017-08-29T06:11:06.544Z,12.90
2017-08-29T06:13:33.272Z,9.10
2017-08-29T06:16:00.005Z,8.73
2017-08-29T06:18:26.761Z,7.87
2017-08-29T06:20:53.480Z,8.80
2017-08-29T06:23:20.282Z,9.00
2017-08-29T06:25:47.014Z,7.97
2017-08-29T06:28:13.734Z,10.07
2017-08-29T06:30:40.571Z,11.70
2017-08-29T06:33:07.299Z,11.60
2017-08-29T06:35:34.004Z,12.57
2017-08-29T06:38:00.700Z,11.23
2017-08-29T06:40:27.419Z,13.00
2017-08-29T06:42:54.119Z,13.20
2017-08-29T06:45:21.075Z,13.37
2017-08-29T06:47:47.794Z,11.67
2017-08-29T06:50:14.494Z,10.53
2017-08-29T06:52:41.207Z,11.00
2017-08-29T06:55:07.939Z,10.30
2017-08-29T06:57:34.666Z,12.03
2017-08-29T07:00:01.416Z,11.50
2017-08-29T07:02:28.155Z,8.10
2017-08-29T07:04:54.858Z,10.67
2017-08-29T07:07:21.703Z,11.20
2017-08-29T07:09:48.437Z,8.60
2017-08-29T07:12:15.177Z,8.20
2017-08-29T07:14:41.917Z,10.80
2017-08-29T07:17:08.652Z,12.20
2017-08-29T07:19:35.359Z,6.53
2017-08-29T07:22:02.053Z,7.43
2017-08-29T07:24:28.781Z,7.37
2017-08-29T07:26:55.463Z,7.27
2017-08-29T07:29:22.156Z,6.57
2017-08-29T07:31:48.878Z,6.03
2017-08-29T07:34:15.570Z,6.20
2017-08-29T07:36:42.286Z,6.63
2017-08-29T07:39:09.006Z,7.07
2017-08-29T07:41:35.740Z,5.80
2017-08-29T07:44:02.427Z,5.80
2017-08-29T07:46:29.140Z,6.43
2017-08-29T07:48:55.831Z,4.73
2017-08-29T07:51:22.532Z,4.77
2017-08-29T07:53:49.282Z,5.50
2017-08-29T07:56:15.979Z,4.73
2017-08-29T07:58:42.700Z,5.50
2017-08-29T08:01:09.419Z,5.07
2017-08-29T08:03:36.163Z,5.73
2017-08-29T08:06:02.923Z,5.20
2017-08-29T08:08:29.658Z,5.93
2017-08-29T08:10:56.386Z,4.87
2017-08-29T08:13:23.151Z,5.40
2017-08-29T08:15:49.891Z,5.40
2017-08-29T08:18:16.588Z,5.27
2017-08-29T08:20:43.307Z,6.10
2017-08-29T08:23:10.037Z,5.77
2017-08-29T08:25:36.723Z,5.30
2017-08-29T08:28:03.486Z,4.63
2017-08-29T08:30:30.225Z,4.70
2017-08-29T08:32:56.919Z,4.80
2017-08-29T08:35:23.608Z,4.50
2017-08-29T08:37:50.326Z,5.07
2017-08-29T08:40:17.044Z,4.80
2017-08-29T08:42:43.742Z,5.17
2017-08-29T08:45:10.473Z,4.80
2017-08-29T08:47:37.163Z,5.13
2017-08-29T08:50:03.846Z,5.30
2017-08-29T08:52:30.597Z,5.23
2017-08-29T08:54:57.299Z,4.13
2017-08-29T08:57:24.002Z,3.83
2017-08-29T08:59:50.719Z,4.10
2017-08-29T09:02:17.418Z,3.60
2017-08-29T09:04:44.159Z,3.43
2017-08-29T09:07:10.896Z,3.47
2017-08-29T09:09:37.588Z,3.67
2017-08-29T09:12:04.278Z,3.80
2017-08-29T09:14:30.986Z,3.27
2017-08-29T09:16:57.691Z,4.10
2017-08-29T09:19:24.429Z,3.47
2017-08-29T09:21:51.167Z,3.63
2017-08-29T09:24:17.883Z,3.90
2017-08-29T09:26:44.580Z,3.90
2017-08-29T09:29:11.293Z,4.03
2017-08-29T09:31:37.978Z,4.00
2017-08-29T09:34:04.671Z,4.30
2017-08-29T09:36:31.405Z,4.10
2017-08-29T09:38:58.111Z,3.77
2017-08-29T09:41:24.820Z,3.97
2017-08-29T09:43:51.526Z,3.87
2017-08-29T09:46:18.229Z,3.90
2017-08-29T09:48:44.926Z,3.83
2017-08-29T09:51:11.650Z,3.83
2017-08-29T09:53:38.355Z,4.17
2017-08-29T09:56:05.080Z,4.17
2017-08-29T09:58:31.833Z,3.97
2017-08-29T10:00:58.561Z,3.90
2017-08-29T10:03:25.271Z,4.00
2017-08-29T10:05:52.027Z,4.57
2017-08-29T10:08:18.767Z,4.20
2017-08-29T10:10:45.472Z,4.00
2017-08-29T10:13:12.236Z,4.20
2017-08-29T10:15:38.933Z,4.33
2017-08-29T10:18:05.632Z,4.83
2017-08-29T10:20:32.357Z,5.00
2017-08-29T10:22:59.052Z,4.73
2017-08-29T10:25:25.741Z,4.37
2017-08-29T10:27:52.469Z,4.80
2017-08-29T10:30:19.169Z,4.83
2017-08-29T10:32:45.909Z,4.40
2017-08-29T10:35:12.632Z,4.60
2017-08-29T10:37:39.350Z,4.63
2017-08-29T10:40:06.051Z,4.60
2017-08-29T10:42:32.761Z,4.50
2017-08-29T10:44:59.513Z,4.07
2017-08-29T10:47:26.235Z,4.40
2017-08-29T10:49:52.947Z,5.20
2017-08-29T10:52:19.782Z,5.10
2017-08-29T10:54:46.482Z,4.97
2017-08-29T10:57:13.186Z,5.70
2017-08-29T10:59:39.878Z,4.43
2017-08-29T11:02:06.561Z,4.33
2017-08-29T11:04:33.270Z,5.50
2017-08-29T11:06:59.958Z,4.97
2017-08-29T11:09:26.654Z,4.00
2017-08-29T11:11:53.426Z,4.20
2017-08-29T11:14:20.120Z,4.67
2017-08-29T11:16:46.827Z,5.40
2017-08-29T11:19:13.744Z,5.00
2017-08-29T11:21:40.492Z,4.40
2017-08-29T11:24:07.220Z,5.20
2017-08-29T11:26:33.955Z,5.10
2017-08-29T11:29:00.670Z,4.20
2017-08-29T11:31:27.391Z,5.10
2017-08-29T11:33:54.131Z,5.30
2017-08-29T11:36:20.843Z,4.97
2017-08-29T11:38:47.581Z,4.40
2017-08-29T11:41:14.346Z,4.50
2017-08-29T11:43:41.079Z,4.70
2017-08-29T11:46:07.802Z,4.67
2017-08-29T11:48:34.552Z,4.30
2017-08-29T11:51:01.278Z,5.33
2017-08-29T11:53:28.026Z,5.43
2017-08-29T11:55:54.780Z,4.90
2017-08-29T11:58:21.504Z,6.17
2017-08-29T12:00:48.217Z,5.40
2017-08-29T12:03:14.969Z,6.13
2017-08-29T12:05:41.717Z,4.93
2017-08-29T12:08:08.441Z,5.53
2017-08-29T12:10:35.176Z,5.60
2017-08-29T12:13:01.871Z,4.63
2017-08-29T12:15:28.558Z,4.63
2017-08-29T12:17:55.292Z,5.33
2017-08-29T12:20:22.018Z,4.80
2017-08-29T12:22:48.810Z,5.47
2017-08-29T12:25:15.522Z,4.80
2017-08-29T12:27:42.219Z,5.00
2017-08-29T12:30:08.909Z,5.17
2017-08-29T12:32:35.647Z,5.77
2017-08-29T12:35:02.429Z,4.80
2017-08-29T12:37:29.135Z,5.20
2017-08-29T12:39:55.842Z,4.80
2017-08-29T12:42:22.539Z,5.20
2017-08-29T12:44:49.255Z,5.40
2017-08-29T12:47:15.996Z,5.40
2017-08-29T12:49:42.713Z,5.60
2017-08-29T12:52:09.412Z,5.30
2017-08-29T12:54:36.130Z,5.00
2017-08-29T12:57:02.825Z,4.90
2017-08-29T12:59:29.515Z,5.80
2017-08-29T13:01:56.250Z,5.60
2017-08-29T13:04:22.989Z,5.13
2017-08-29T13:06:49.722Z,4.80
2017-08-29T13:09:16.430Z,5.43
2017-08-29T13:11:43.150Z,4.67
2017-08-29T13:14:09.846Z,4.93
2017-08-29T13:16:36.605Z,5.13
2017-08-29T13:19:03.336Z,4.60
2017-08-29T13:21:30.090Z,5.73
2017-08-29T13:23:56.855Z,6.33
2017-08-29T13:26:23.673Z,5.00
2017-08-29T13:28:50.380Z,5.50
2017-08-29T13:31:17.118Z,5.03
2017-08-29T13:33:43.885Z,4.90
2017-08-29T13:36:10.596Z,5.50
2017-08-29T13:38:37.349Z,5.47
2017-08-29T13:41:04.064Z,4.40
2017-08-29T13:43:30.759Z,4.57
2017-08-29T13:45:57.502Z,4.90
2017-08-29T13:48:24.224Z,4.17
2017-08-29T13:50:50.929Z,4.47
2017-08-29T13:53:17.679Z,5.20
2017-08-29T13:55:44.428Z,4.17
2017-08-29T13:58:11.146Z,4.87
2017-08-29T14:00:37.886Z,5.07
2017-08-29T14:03:04.588Z,4.90
2017-08-29T14:05:31.313Z,5.10
2017-08-29T14:07:58.059Z,4.77
2017-08-29T14:10:24.770Z,4.93
2017-08-29T14:12:51.456Z,4.27
2017-08-29T14:15:18.360Z,4.40
2017-08-29T14:17:45.049Z,5.20
2017-08-29T14:20:11.743Z,5.20
2017-08-29T14:22:38.473Z,4.37
2017-08-29T14:25:05.166Z,4.97
2017-08-29T14:27:31.864Z,5.50
2017-08-29T14:29:58.591Z,4.90
2017-08-29T14:32:25.285Z,4.90
2017-08-29T14:34:51.992Z,4.63
2017-08-29T14:37:18.711Z,4.00
2017-08-29T14:39:45.483Z,5.03
2017-08-29T14:42:12.218Z,4.63
2017-08-29T14:44:38.935Z,4.57
2017-08-29T14:47:11.627Z,5.30
2017-08-29T14:49:38.336Z,5.00
2017-08-29T14:52:05.046Z,5.10
2017-08-29T14:54:31.774Z,4.77
2017-08-29T14:56:58.462Z,4.73
2017-08-29T14:59:25.182Z,4.63
2017-08-29T15:01:51.891Z,4.77
2017-08-29T15:04:18.577Z,4.20
2017-08-29T15:06:45.298Z,7.37
2017-08-29T15:09:11.986Z,5.27
2017-08-29T15:11:39.318Z,4.37
2017-08-29T15:14:06.047Z,4.60
2017-08-29T15:16:32.747Z,4.70
2017-08-29T15:18:59.451Z,4.50
2017-08-29T15:21:26.292Z,4.47
2017-08-29T15:23:52.983Z,4.80
2017-08-29T15:26:19.675Z,5.27
2017-08-29T15:28:46.394Z,4.80
2017-08-29T15:31:28.369Z,4.87
2017-08-29T15:37:04.019Z,4.67
2017-08-29T15:39:47.996Z,4.90
2017-08-29T15:48:01.827Z,4.50
2017-08-29T15:50:28.549Z,5.23
2017-08-29T15:52:55.314Z,4.73
2017-08-29T15:55:22.007Z,4.97
2017-08-29T15:57:48.727Z,5.53
2017-08-29T16:00:15.423Z,4.50
2017-08-29T16:02:42.109Z,5.20
2017-08-29T16:05:08.847Z,5.30
2017-08-29T16:07:35.546Z,4.90
2017-08-29T16:10:02.270Z,4.57
2017-08-29T16:12:29.066Z,5.50
2017-08-29T16:14:55.776Z,5.20
2017-08-29T16:17:22.483Z,5.13
2017-08-29T16:19:49.208Z,6.70
2017-08-29T16:22:15.906Z,6.57
2017-08-29T16:24:43.588Z,5.80
2017-08-29T16:27:10.346Z,5.50
2017-08-29T16:29:37.055Z,5.13
2017-08-29T16:32:03.781Z,4.70
2017-08-29T16:34:30.575Z,5.00
2017-08-29T16:36:57.270Z,5.37
2017-08-29T16:39:23.998Z,6.13
2017-08-29T16:41:50.743Z,5.90
2017-08-29T16:44:17.442Z,5.30
2017-08-29T16:46:44.195Z,5.57
2017-08-29T16:49:10.955Z,5.20
2017-08-29T16:51:37.659Z,4.53
2017-08-29T16:54:04.382Z,5.43
2017-08-29T16:56:31.111Z,4.73
2017-08-29T16:58:57.829Z,4.70
2017-08-29T17:01:24.547Z,5.20
2017-08-29T17:03:51.474Z,4.90
2017-08-29T17:06:18.247Z,5.63
2017-08-29T17:08:44.996Z,8.23
2017-08-29T17:11:11.734Z,5.50
2017-08-29T17:13:38.439Z,6.43
2017-08-29T17:16:05.160Z,5.43
2017-08-29T17:18:31.879Z,5.23
2017-08-29T17:20:58.604Z,4.80
2017-08-29T17:23:25.318Z,5.30
2017-08-29T17:25:52.066Z,5.40
2017-08-29T17:28:18.773Z,6.00
2017-08-29T17:30:45.695Z,5.23
2017-08-29T17:33:12.537Z,5.43
2017-08-29T17:35:39.257Z,5.67
2017-08-29T17:38:06.027Z,6.20
2017-08-29T17:40:32.786Z,5.80
2017-08-29T17:42:59.497Z,6.10
2017-08-29T17:45:26.257Z,6.30
2017-08-29T17:47:52.992Z,5.60
2017-08-29T17:50:19.804Z,6.00
2017-08-29T17:52:46.503Z,7.00
2017-08-29T17:55:13.244Z,5.43
2017-08-29T17:57:39.951Z,6.07
2017-08-29T18:00:06.665Z,5.00
2017-08-29T18:02:33.409Z,5.50
2017-08-29T18:05:00.118Z,6.03
2017-08-29T18:07:26.828Z,5.70
2017-08-29T18:09:53.569Z,5.70
2017-08-29T18:12:20.269Z,5.20
2017-08-29T18:14:47.041Z,5.13
2017-08-29T18:17:13.777Z,5.77
2017-08-29T18:19:40.502Z,5.50
2017-08-29T18:22:07.250Z,5.80
2017-08-29T18:24:34.084Z,6.27
2017-08-29T18:27:00.838Z,6.03
2017-08-29T18:29:27.607Z,6.17
2017-08-29T18:31:54.743Z,6.13
2017-08-29T18:34:21.487Z,5.60
2017-08-29T18:36:48.536Z,5.80
2017-08-29T18:39:15.253Z,5.53
2017-08-29T18:41:41.979Z,6.10
2017-08-29T18:44:08.916Z,6.00
2017-08-29T18:46:36.235Z,6.83
2017-08-29T18:49:03.232Z,7.20
2017-08-29T18:51:29.990Z,6.90
2017-08-29T18:53:56.717Z,6.50
2017-08-29T18:56:23.472Z,6.23
2017-08-29T18:58:50.249Z,6.00
2017-08-29T19:01:18.065Z,4.97
2017-08-29T19:03:44.921Z,6.00
2017-08-29T19:06:11.718Z,6.30
2017-08-29T19:08:38.896Z,5.80
2017-08-29T19:11:05.988Z,6.60
2017-08-29T19:13:32.760Z,6.10
2017-08-29T19:15:59.504Z,5.30
2017-08-29T19:18:26.230Z,5.60
2017-08-29T19:20:52.975Z,5.63
2017-08-29T19:23:19.717Z,5.20
2017-08-29T19:25:46.473Z,5.83
2017-08-29T19:28:13.192Z,5.87
2017-08-29T19:30:39.946Z,5.80
2017-08-29T19:33:06.655Z,6.10
2017-08-29T19:35:33.356Z,5.93
2017-08-29T19:38:00.139Z,5.40
2017-08-29T19:40:27.050Z,6.00
2017-08-29T19:42:54.751Z,6.07
2017-08-29T19:45:21.786Z,7.00
2017-08-29T19:47:48.518Z,5.93
2017-08-29T19:50:15.360Z,6.53
2017-08-29T19:52:42.306Z,5.90
2017-08-29T19:55:09.036Z,6.07
2017-08-29T19:57:35.757Z,6.30
2017-08-29T20:00:02.541Z,5.70
2017-08-29T20:02:29.257Z,7.17
2017-08-29T20:04:55.976Z,6.10
2017-08-29T20:07:22.725Z,6.20
2017-08-29T20:09:49.439Z,7.20
2017-08-29T20:12:16.170Z,6.70
2017-08-29T20:14:42.972Z,7.10
2017-08-29T20:17:09.694Z,6.93
2017-08-29T20:19:36.476Z,5.80
2017-08-29T20:22:03.218Z,5.80
2017-08-29T20:24:29.947Z,6.47
2017-08-29T20:26:56.658Z,6.00
2017-08-29T20:29:23.647Z,5.77
2017-08-29T20:31:51.003Z,6.43
2017-08-29T20:34:17.707Z,6.50
2017-08-29T20:36:44.431Z,6.50
2017-08-29T20:39:11.205Z,6.17
2017-08-29T20:41:38.228Z,6.47
2017-08-29T20:44:04.987Z,5.73
2017-08-29T20:46:31.693Z,5.20
2017-08-29T20:48:58.924Z,6.37
2017-08-29T20:51:25.665Z,6.20
2017-08-29T20:53:52.358Z,6.23
2017-08-29T20:56:19.082Z,5.87
2017-08-29T20:58:45.814Z,6.40
2017-08-29T21:01:12.519Z,6.13
2017-08-29T21:03:39.216Z,6.50
2017-08-29T21:06:05.954Z,6.30
2017-08-29T21:08:32.672Z,5.30
2017-08-29T21:10:59.377Z,5.97
2017-08-29T21:13:26.113Z,5.77
2017-08-29T21:15:52.811Z,6.40
2017-08-29T21:18:19.525Z,5.97
2017-08-29T21:20:46.251Z,6.10
2017-08-29T21:23:12.969Z,6.20
2017-08-29T21:25:39.715Z,6.00
2017-08-29T21:28:06.456Z,6.10
2017-08-29T21:30:33.234Z,6.60
2017-08-29T21:32:59.965Z,6.53
2017-08-29T21:35:26.693Z,6.30
2017-08-29T21:37:53.402Z,6.13
2017-08-29T21:40:20.113Z,6.10
2017-08-29T21:42:46.835Z,6.13
2017-08-29T21:45:13.770Z,6.00
2017-08-29T21:47:40.500Z,5.20
2017-08-29T21:50:07.236Z,6.70
2017-08-29T21:52:33.942Z,6.00
2017-08-29T21:55:00.635Z,6.03
2017-08-29T21:57:27.403Z,6.30
2017-08-29T21:59:54.099Z,6.23
2017-08-29T22:02:20.809Z,6.10
2017-08-29T22:04:47.548Z,5.40
2017-08-29T22:07:14.278Z,6.60
2017-08-29T22:09:40.980Z,6.40
2017-08-29T22:12:07.775Z,6.47
2017-08-29T22:14:34.604Z,6.20
2017-08-29T22:17:01.307Z,6.67
2017-08-29T22:19:28.041Z,6.23
2017-08-29T22:21:54.845Z,5.73
2017-08-29T22:24:21.538Z,7.53
2017-08-29T22:26:48.272Z,6.13
2017-08-29T22:29:14.968Z,6.23
2017-08-29T22:31:41.668Z,5.90
2017-08-29T22:34:08.408Z,6.60
2017-08-29T22:36:35.320Z,6.47
2017-08-29T22:39:02.015Z,6.40
2017-08-29T22:41:28.737Z,5.90
2017-08-29T22:43:55.451Z,7.20
2017-08-29T22:46:22.154Z,6.50
2017-08-29T22:48:48.878Z,6.10
2017-08-29T22:51:15.584Z,5.97
2017-08-29T22:53:42.284Z,6.40
2017-08-29T22:56:09.096Z,6.40
2017-08-29T22:58:35.784Z,7.33
2017-08-29T23:01:02.531Z,6.20
2017-08-29T23:03:29.269Z,6.17
2017-08-29T23:05:56.016Z,6.53
2017-08-29T23:08:22.723Z,6.30
2017-08-29T23:10:49.488Z,6.40
2017-08-29T23:13:16.262Z,6.20
2017-08-29T23:15:42.962Z,6.20
2017-08-29T23:18:09.687Z,6.40
2017-08-29T23:20:36.461Z,6.53
2017-08-29T23:23:03.176Z,6.57
2017-08-29T23:25:29.895Z,6.63
2017-08-29T23:27:56.601Z,6.83
2017-08-29T23:30:23.315Z,6.70
2017-08-29T23:32:50.038Z,6.90
2017-08-29T23:35:16.757Z,6.40
2017-08-29T23:37:43.469Z,7.30
2017-08-29T23:40:10.208Z,6.97
2017-08-29T23:42:36.908Z,6.90
2017-08-29T23:45:03.622Z,7.10
2017-08-29T23:47:30.366Z,7.13
2017-08-29T23:49:57.157Z,7.40
2017-08-29T23:52:23.860Z,7.40
2017-08-29T23:54:50.583Z,6.87
2017-08-29T23:57:17.344Z,6.37
2017-08-29T23:59:44.026Z,6.63
